Time;durP1;ratioP1;P1;durP2;ratioP2;P2;SDS_P1;SDS_P2;PMS_P1;PMS_P2;Temp;Humidity;BMP_temperature;BMP_pressure;BME280_temperature;BME280_humidity;BME280_pressure;Samples;Min_cycle;Max_cycle;Signal;HPM_P1;HPM_P2
2023/08/14 00:00:33;;;;;;;;;;;16.30;99.90;;;;;;5016817;28;19943;-43
2023/08/14 00:03:01;;;;;;;;;;;16.20;99.90;;;;;;5028525;28;19963;-43
2023/08/14 00:05:27;;;;;;;;;;;16.20;99.90;;;;;;5011754;28;19962;-42
2023/08/14 00:07:54;;;;;;;;;;;16.20;99.90;;;;;;5026004;28;19925;-44
2023/08/14 00:10:21;;;;;;;;;;;16.20;99.90;;;;;;5005302;28;19925;-43
2023/08/14 00:12:48;;;;;;;;;;;16.20;99.90;;;;;;5027193;28;19929;-44
2023/08/14 00:15:14;;;;;;;;;;;16.20;99.90;;;;;;5026560;28;20377;-43
2023/08/14 00:17:42;;;;;;;;;;;16.20;99.90;;;;;;5030637;28;19930;-42
2023/08/14 00:20:10;;;;;;;;;;;16.10;99.90;;;;;;5032931;28;19959;-42
2023/08/14 00:22:36;;;;;;;;;;;16.10;99.90;;;;;;5012490;28;20466;-43
2023/08/14 00:25:03;;;;;;;;;;;16.10;99.90;;;;;;4997432;28;20389;-43
2023/08/14 00:27:30;;;;;;;;;;;16.10;99.90;;;;;;5006579;28;20297;-43
2023/08/14 00:29:57;;;;;;;;;;;16.10;99.90;;;;;;5014767;28;19980;-43
2023/08/14 00:32:23;;;;;;;;;;;16.00;99.90;;;;;;4997173;28;20309;-43
2023/08/14 00:34:51;;;;;;;;;;;16.00;99.90;;;;;;5014623;28;19933;-43
2023/08/14 00:37:18;;;;;;;;;;;16.00;99.90;;;;;;5013900;28;20409;-43
2023/08/14 00:39:45;;;;;;;;;;;16.00;99.90;;;;;;5014219;28;20311;-43
2023/08/14 00:42:11;;;;;;;;;;;16.00;99.90;;;;;;5028150;28;19926;-43
2023/08/14 00:44:38;;;;;;;;;;;16.00;99.90;;;;;;5034112;28;19925;-42
2023/08/14 00:47:05;;;;;;;;;;;15.90;99.90;;;;;;4999508;28;19937;-43
2023/08/14 00:49:32;;;;;;;;;;;15.90;99.90;;;;;;4997161;28;20002;-43
2023/08/14 00:52:00;;;;;;;;;;;15.90;99.90;;;;;;5013865;28;19951;-43
2023/08/14 00:54:27;;;;;;;;;;;15.90;99.90;;;;;;4997263;28;19956;-43
2023/08/14 00:56:54;;;;;;;;;;;15.80;99.90;;;;;;5006701;28;19982;-42
2023/08/14 00:59:20;;;;;;;;;;;15.80;99.90;;;;;;5027641;28;20382;-43
2023/08/14 01:01:47;;;;;;;;;;;15.80;99.90;;;;;;5033908;28;19925;-41
2023/08/14 01:04:14;;;;;;;;;;;15.80;99.90;;;;;;5033861;28;19948;-43
2023/08/14 01:06:40;;;;;;;;;;;15.70;99.90;;;;;;5026351;28;20403;-44
2023/08/14 01:09:09;;;;;;;;;;;15.70;99.90;;;;;;5013498;28;19956;-44
2023/08/14 01:11:38;;;;;;;;;;;15.70;99.90;;;;;;5031675;28;19925;-44
2023/08/14 01:14:05;;;;;;;;;;;15.70;99.90;;;;;;5033283;28;19963;-44
2023/08/14 01:16:34;;;;;;;;;;;15.70;99.90;;;;;;5032900;28;19929;-43
2023/08/14 01:19:00;;;;;;;;;;;15.60;99.90;;;;;;5015231;28;19925;-44
2023/08/14 01:21:34;;;;;;;;;;;15.70;99.90;;;;;;5025450;28;19932;-43
2023/08/14 01:24:02;;;;;;;;;;;15.60;99.90;;;;;;5033571;28;19932;-44
2023/08/14 01:26:30;;;;;;;;;;;15.60;99.90;;;;;;5024356;28;19925;-43
2023/08/14 01:28:57;;;;;;;;;;;15.60;99.90;;;;;;5013899;28;19933;-43
2023/08/14 01:31:24;;;;;;;;;;;15.50;99.90;;;;;;5013496;28;19925;-44
2023/08/14 01:33:50;;;;;;;;;;;15.50;99.90;;;;;;5005912;28;19926;-44
2023/08/14 01:36:19;;;;;;;;;;;15.50;99.90;;;;;;4995678;28;19937;-44
2023/08/14 01:38:48;;;;;;;;;;;15.50;99.90;;;;;;5013450;28;19934;-41
2023/08/14 01:41:15;;;;;;;;;;;15.40;99.90;;;;;;5014778;28;19929;-44
2023/08/14 01:43:45;;;;;;;;;;;15.40;99.90;;;;;;5013457;28;20010;-44
2023/08/14 01:46:12;;;;;;;;;;;15.40;99.90;;;;;;5034139;28;19925;-43
2023/08/14 01:48:39;;;;;;;;;;;15.40;99.90;;;;;;5049167;28;19963;-44
2023/08/14 01:51:06;;;;;;;;;;;15.40;99.90;;;;;;5018548;28;19929;-43
2023/08/14 01:53:33;;;;;;;;;;;15.30;99.90;;;;;;5015520;28;19936;-43
2023/08/14 01:56:01;;;;;;;;;;;15.30;99.90;;;;;;5032765;28;20437;-43
2023/08/14 01:58:28;;;;;;;;;;;15.30;99.90;;;;;;5016405;28;19976;-41
2023/08/14 02:00:56;;;;;;;;;;;15.30;99.90;;;;;;5004770;28;19959;-42
2023/08/14 02:03:22;;;;;;;;;;;15.30;99.90;;;;;;5031199;28;19933;-42
2023/08/14 02:05:49;;;;;;;;;;;15.20;99.90;;;;;;5013488;28;19929;-42
2023/08/14 02:08:16;;;;;;;;;;;15.20;99.90;;;;;;5013139;28;19925;-43
2023/08/14 02:10:42;;;;;;;;;;;15.20;99.90;;;;;;4995520;28;19984;-42
2023/08/14 02:13:09;;;;;;;;;;;15.20;99.90;;;;;;4994437;28;19967;-42
2023/08/14 02:15:36;;;;;;;;;;;15.10;99.90;;;;;;5018383;28;19939;-42
2023/08/14 02:18:04;;;;;;;;;;;15.10;99.90;;;;;;5014821;28;19940;-43
2023/08/14 02:20:31;;;;;;;;;;;15.10;99.90;;;;;;5014311;28;19925;-43
2023/08/14 02:22:57;;;;;;;;;;;15.10;99.90;;;;;;5028395;28;19925;-42
2023/08/14 02:25:24;;;;;;;;;;;15.10;99.90;;;;;;5012664;28;19944;-42
2023/08/14 02:27:51;;;;;;;;;;;15.00;99.90;;;;;;5015796;28;19937;-42
2023/08/14 02:30:18;;;;;;;;;;;15.00;99.90;;;;;;5014919;28;19963;-42
2023/08/14 02:32:44;;;;;;;;;;;15.00;99.90;;;;;;5000614;28;19955;-42
2023/08/14 02:35:12;;;;;;;;;;;15.00;99.90;;;;;;4994472;28;19925;-43
2023/08/14 02:37:39;;;;;;;;;;;15.00;99.90;;;;;;5012648;28;19958;-43
2023/08/14 02:40:07;;;;;;;;;;;15.00;99.90;;;;;;5012939;28;20377;-44
2023/08/14 02:42:33;;;;;;;;;;;15.00;99.90;;;;;;5012510;28;19931;-43
2023/08/14 02:45:00;;;;;;;;;;;14.90;99.90;;;;;;5018615;28;20396;-42
2023/08/14 02:47:27;;;;;;;;;;;14.90;99.90;;;;;;5005908;28;19925;-43
2023/08/14 02:49:54;;;;;;;;;;;14.90;99.90;;;;;;5030804;28;19947;-43
2023/08/14 02:52:22;;;;;;;;;;;14.90;99.90;;;;;;5002846;28;19925;-43
2023/08/14 02:54:48;;;;;;;;;;;14.80;99.90;;;;;;5021250;28;19925;-42
2023/08/14 02:57:15;;;;;;;;;;;14.80;99.90;;;;;;5014012;28;19947;-42
2023/08/14 02:59:42;;;;;;;;;;;14.80;99.90;;;;;;4993602;28;19982;-43
2023/08/14 03:02:08;;;;;;;;;;;14.80;99.90;;;;;;5001267;28;19970;-44
2023/08/14 03:04:35;;;;;;;;;;;14.80;99.90;;;;;;5022668;28;19925;-43
2023/08/14 03:07:02;;;;;;;;;;;14.80;99.90;;;;;;5031815;28;19975;-43
2023/08/14 03:09:30;;;;;;;;;;;14.70;99.90;;;;;;5029684;28;19964;-43
2023/08/14 03:11:57;;;;;;;;;;;14.70;99.90;;;;;;5020741;28;19980;-43
2023/08/14 03:14:23;;;;;;;;;;;14.70;99.90;;;;;;4994950;28;20344;-43
2023/08/14 03:16:50;;;;;;;;;;;14.70;99.90;;;;;;4994202;28;19926;-43
2023/08/14 03:19:17;;;;;;;;;;;14.70;99.90;;;;;;4994620;28;19926;-43
2023/08/14 03:21:43;;;;;;;;;;;14.70;99.90;;;;;;4994771;28;19965;-44
2023/08/14 03:24:10;;;;;;;;;;;14.70;99.90;;;;;;5015517;28;19956;-43
2023/08/14 03:26:38;;;;;;;;;;;14.80;99.90;;;;;;5029035;28;19925;-44
2023/08/14 03:29:05;;;;;;;;;;;14.70;99.90;;;;;;4994514;28;19929;-43
2023/08/14 03:31:33;;;;;;;;;;;14.70;99.90;;;;;;4996880;28;19960;-43
2023/08/14 03:34:00;;;;;;;;;;;14.70;99.90;;;;;;4996692;28;19942;-42
2023/08/14 03:36:27;;;;;;;;;;;14.70;99.90;;;;;;5011591;28;19932;-43
2023/08/14 03:38:53;;;;;;;;;;;14.70;99.90;;;;;;5011442;28;20022;-42
2023/08/14 03:41:20;;;;;;;;;;;14.70;99.90;;;;;;5012188;28;19957;-43
2023/08/14 03:43:48;;;;;;;;;;;14.60;99.90;;;;;;5004492;28;19967;-44
2023/08/14 03:46:15;;;;;;;;;;;14.60;99.90;;;;;;5023788;28;19925;-43
2023/08/14 03:48:41;;;;;;;;;;;14.60;99.90;;;;;;5030208;28;19971;-44
2023/08/14 03:51:09;;;;;;;;;;;14.60;99.90;;;;;;5031332;28;19929;-44
2023/08/14 03:53:36;;;;;;;;;;;14.60;99.90;;;;;;5012108;28;19925;-43
2023/08/14 03:56:02;;;;;;;;;;;14.60;99.90;;;;;;5015320;28;20385;-43
2023/08/14 03:58:29;;;;;;;;;;;14.60;99.90;;;;;;5003639;28;19936;-44
2023/08/14 04:00:57;;;;;;;;;;;14.60;99.90;;;;;;5001336;28;19929;-44
2023/08/14 04:03:24;;;;;;;;;;;14.60;99.90;;;;;;5023866;28;19962;-43
2023/08/14 04:05:53;;;;;;;;;;;14.60;99.90;;;;;;5025812;28;19947;-44
2023/08/14 04:08:19;;;;;;;;;;;14.60;99.90;;;;;;5009856;28;19998;-44
2023/08/14 04:10:46;;;;;;;;;;;14.60;99.90;;;;;;5026164;28;19929;-43
2023/08/14 04:13:13;;;;;;;;;;;14.50;99.90;;;;;;5023530;28;19928;-44
2023/08/14 04:15:40;;;;;;;;;;;14.50;99.90;;;;;;5005976;28;19925;-43
2023/08/14 04:18:08;;;;;;;;;;;14.50;99.90;;;;;;5011406;28;19926;-44
2023/08/14 04:20:35;;;;;;;;;;;14.50;99.90;;;;;;5011380;28;20373;-43
2023/08/14 04:23:01;;;;;;;;;;;14.50;99.90;;;;;;5014857;28;19925;-44
2023/08/14 04:25:28;;;;;;;;;;;14.50;99.90;;;;;;5025515;28;20380;-43
2023/08/14 04:27:55;;;;;;;;;;;14.50;99.90;;;;;;5012810;28;20483;-44
2023/08/14 04:30:22;;;;;;;;;;;14.50;99.90;;;;;;5000423;28;20282;-44
2023/08/14 04:32:52;;;;;;;;;;;14.50;99.90;;;;;;5029557;28;19926;-44
2023/08/14 04:35:20;;;;;;;;;;;14.50;99.90;;;;;;5030567;28;20011;-45
2023/08/14 04:37:46;;;;;;;;;;;14.40;99.90;;;;;;5033541;28;19932;-43
2023/08/14 04:40:13;;;;;;;;;;;14.50;99.90;;;;;;5031470;28;19925;-44
2023/08/14 04:42:40;;;;;;;;;;;14.50;99.90;;;;;;5016667;28;19925;-44
2023/08/14 04:45:07;;;;;;;;;;;14.50;99.90;;;;;;5015951;28;19964;-44
2023/08/14 04:47:34;;;;;;;;;;;14.50;99.90;;;;;;5033895;28;19929;-43
2023/08/14 04:50:00;;;;;;;;;;;14.60;99.90;;;;;;5032052;28;19929;-44
2023/08/14 04:52:28;;;;;;;;;;;14.60;99.90;;;;;;5030897;28;19932;-43
2023/08/14 04:54:55;;;;;;;;;;;14.70;99.90;;;;;;5015427;28;19961;-43
2023/08/14 04:57:22;;;;;;;;;;;14.70;99.90;;;;;;5033276;28;19925;-43
2023/08/14 04:59:48;;;;;;;;;;;14.70;99.90;;;;;;5031900;28;19925;-43
2023/08/14 05:02:15;;;;;;;;;;;14.80;99.90;;;;;;5026688;28;20316;-43
2023/08/14 05:04:42;;;;;;;;;;;14.80;99.90;;;;;;5016223;28;20140;-43
2023/08/14 05:07:08;;;;;;;;;;;14.90;99.90;;;;;;5033127;28;19968;-43
2023/08/14 05:09:37;;;;;;;;;;;14.90;99.90;;;;;;5015503;28;19964;-43
2023/08/14 05:12:03;;;;;;;;;;;15.00;99.90;;;;;;5014761;28;19925;-42
2023/08/14 05:14:31;;;;;;;;;;;15.00;99.90;;;;;;5024970;28;20344;-43
2023/08/14 05:16:57;;;;;;;;;;;15.10;99.90;;;;;;5031884;28;19925;-43
2023/08/14 05:19:24;;;;;;;;;;;15.10;99.90;;;;;;5028699;28;19925;-43
2023/08/14 05:21:51;;;;;;;;;;;15.20;99.90;;;;;;5021627;28;19965;-42
2023/08/14 05:24:17;;;;;;;;;;;15.20;99.90;;;;;;4994952;28;20366;-43
2023/08/14 05:26:45;;;;;;;;;;;15.30;99.90;;;;;;4998534;28;19980;-44
2023/08/14 05:29:12;;;;;;;;;;;15.40;99.90;;;;;;5013172;28;19933;-43
2023/08/14 05:31:39;;;;;;;;;;;15.40;99.90;;;;;;5026155;28;19950;-43
2023/08/14 05:34:05;;;;;;;;;;;15.50;99.90;;;;;;5012782;28;20433;-43
2023/08/14 05:36:32;;;;;;;;;;;15.50;99.90;;;;;;5032742;28;20277;-43
2023/08/14 05:38:59;;;;;;;;;;;15.70;99.90;;;;;;5033316;28;20019;-42
2023/08/14 05:41:25;;;;;;;;;;;15.70;99.90;;;;;;5031613;28;19932;-44
2023/08/14 05:43:53;;;;;;;;;;;15.80;99.90;;;;;;5012473;28;19925;-43
2023/08/14 05:46:23;;;;;;;;;;;15.80;99.90;;;;;;5031712;28;19983;-44
2023/08/14 05:48:50;;;;;;;;;;;15.90;99.90;;;;;;4996370;28;19926;-42
2023/08/14 05:51:17;;;;;;;;;;;16.00;99.90;;;;;;5016857;28;19944;-43
2023/08/14 05:53:44;;;;;;;;;;;16.00;99.90;;;;;;5024227;28;19952;-43
2023/08/14 05:56:10;;;;;;;;;;;16.10;99.90;;;;;;5012949;28;19932;-43
2023/08/14 05:58:37;;;;;;;;;;;16.20;99.90;;;;;;5013175;28;19967;-44
2023/08/14 06:01:05;;;;;;;;;;;16.20;99.90;;;;;;5013510;28;19960;-42
2023/08/14 06:03:32;;;;;;;;;;;16.20;99.90;;;;;;5025053;28;19932;-42
2023/08/14 06:05:59;;;;;;;;;;;16.30;99.90;;;;;;5032219;28;19971;-45
2023/08/14 06:08:25;;;;;;;;;;;16.30;99.90;;;;;;5030072;28;19929;-43
2023/08/14 06:10:52;;;;;;;;;;;16.40;99.90;;;;;;5031360;28;19947;-44
2023/08/14 06:13:19;;;;;;;;;;;16.40;99.90;;;;;;5031972;28;19967;-44
2023/08/14 06:15:46;;;;;;;;;;;16.50;99.90;;;;;;5013941;28;20451;-43
2023/08/14 06:18:14;;;;;;;;;;;16.60;99.90;;;;;;5026414;28;19925;-44
2023/08/14 06:20:41;;;;;;;;;;;16.70;99.90;;;;;;5029589;28;19969;-43
2023/08/14 06:23:07;;;;;;;;;;;16.70;99.90;;;;;;5019156;28;20316;-44
2023/08/14 06:25:34;;;;;;;;;;;16.80;99.90;;;;;;5012366;28;19958;-44
2023/08/14 06:28:01;;;;;;;;;;;16.80;99.90;;;;;;5027594;28;19925;-44
2023/08/14 06:30:27;;;;;;;;;;;16.90;99.90;;;;;;5007954;28;19956;-44
2023/08/14 06:32:54;;;;;;;;;;;17.00;99.90;;;;;;5026337;28;19943;-44
2023/08/14 06:35:22;;;;;;;;;;;17.00;99.90;;;;;;5026493;28;19957;-44
2023/08/14 06:37:50;;;;;;;;;;;17.00;99.90;;;;;;5021219;28;20327;-44
2023/08/14 06:40:16;;;;;;;;;;;17.10;99.90;;;;;;5022643;28;19970;-43
2023/08/14 06:42:43;;;;;;;;;;;17.10;99.90;;;;;;5013730;28;19935;-44
2023/08/14 06:45:10;;;;;;;;;;;17.10;99.90;;;;;;5015254;28;19951;-43
2023/08/14 06:47:43;;;;;;;;;;;17.10;99.90;;;;;;5000556;28;20016;-44
2023/08/14 06:50:10;;;;;;;;;;;17.20;99.90;;;;;;4999452;28;19955;-43
2023/08/14 06:52:38;;;;;;;;;;;17.20;99.90;;;;;;5026399;28;20063;-44
2023/08/14 06:55:06;;;;;;;;;;;17.20;99.90;;;;;;5009995;28;19929;-42
2023/08/14 06:57:32;;;;;;;;;;;17.30;99.90;;;;;;5017223;28;20426;-44
2023/08/14 07:00:02;;;;;;;;;;;17.30;99.90;;;;;;5000840;28;19933;-43
2023/08/14 07:02:28;;;;;;;;;;;17.30;99.90;;;;;;5018190;28;19956;-44
2023/08/14 07:04:55;;;;;;;;;;;17.40;99.90;;;;;;5026976;28;20277;-44
2023/08/14 07:07:22;;;;;;;;;;;17.40;99.90;;;;;;5010634;28;19955;-44
2023/08/14 07:09:50;;;;;;;;;;;17.50;99.90;;;;;;5006895;28;19964;-45
2023/08/14 07:12:17;;;;;;;;;;;17.50;99.90;;;;;;5029640;28;20020;-42
2023/08/14 07:14:44;;;;;;;;;;;17.60;99.90;;;;;;5029962;28;19958;-43
2023/08/14 07:17:11;;;;;;;;;;;17.70;99.90;;;;;;5021993;28;19949;-42
2023/08/14 07:19:37;;;;;;;;;;;17.80;99.90;;;;;;4994920;28;19937;-42
2023/08/14 07:22:04;;;;;;;;;;;17.90;99.90;;;;;;5014847;28;19969;-42
2023/08/14 07:24:31;;;;;;;;;;;18.00;99.90;;;;;;5018208;28;20324;-42
2023/08/14 07:27:00;;;;;;;;;;;18.10;99.90;;;;;;5028152;28;19929;-41
2023/08/14 07:29:26;;;;;;;;;;;18.20;99.90;;;;;;5010576;28;19929;-43
2023/08/14 07:31:53;;;;;;;;;;;18.30;99.90;;;;;;5000710;28;19925;-42
2023/08/14 07:34:20;;;;;;;;;;;18.50;99.90;;;;;;5015066;28;20361;-43
2023/08/14 07:36:46;;;;;;;;;;;18.60;99.90;;;;;;5027564;28;19929;-42
2023/08/14 07:39:13;;;;;;;;;;;18.80;99.90;;;;;;5023035;28;19925;-42
2023/08/14 07:41:40;;;;;;;;;;;18.90;99.90;;;;;;5023120;28;20361;-41
2023/08/14 07:44:08;;;;;;;;;;;19.10;99.90;;;;;;5013180;28;19929;-43
2023/08/14 07:46:34;;;;;;;;;;;19.30;99.90;;;;;;5021344;28;20353;-42
2023/08/14 07:49:01;;;;;;;;;;;19.40;99.90;;;;;;5018538;28;19986;-42
2023/08/14 07:51:28;;;;;;;;;;;19.40;99.90;;;;;;5001485;28;19926;-43
2023/08/14 07:53:54;;;;;;;;;;;19.50;99.90;;;;;;5025714;28;20428;-42
2023/08/14 07:56:21;;;;;;;;;;;19.50;99.90;;;;;;5023806;28;20115;-43
2023/08/14 07:58:48;;;;;;;;;;;19.60;99.90;;;;;;5024588;28;19974;-44
2023/08/14 08:01:17;;;;;;;;;;;19.70;99.90;;;;;;5009146;28;19933;-42
2023/08/14 08:03:44;;;;;;;;;;;19.70;99.90;;;;;;5022664;28;20029;-43
2023/08/14 08:06:10;;;;;;;;;;;19.80;99.90;;;;;;5010392;28;20007;-42
2023/08/14 08:08:37;;;;;;;;;;;19.80;99.90;;;;;;5026473;28;20318;-42
2023/08/14 08:11:04;;;;;;;;;;;19.80;99.90;;;;;;5012706;28;19935;-42
2023/08/14 08:13:30;;;;;;;;;;;19.90;99.90;;;;;;5030942;28;20274;-43
2023/08/14 08:15:57;;;;;;;;;;;19.90;99.90;;;;;;5020530;28;19959;-42
2023/08/14 08:18:25;;;;;;;;;;;20.00;99.90;;;;;;5012749;28;19964;-42
2023/08/14 08:20:52;;;;;;;;;;;20.20;99.90;;;;;;5029710;28;20448;-44
2023/08/14 08:23:18;;;;;;;;;;;20.30;99.90;;;;;;5028744;28;19925;-43
2023/08/14 08:25:46;;;;;;;;;;;20.60;99.90;;;;;;5023164;28;19968;-43
2023/08/14 08:28:12;;;;;;;;;;;20.70;99.90;;;;;;5032069;28;19937;-43
2023/08/14 08:30:39;;;;;;;;;;;20.80;99.90;;;;;;5031556;28;19925;-43
2023/08/14 08:33:06;;;;;;;;;;;20.90;99.90;;;;;;5001028;28;19976;-43
2023/08/14 08:35:34;;;;;;;;;;;21.20;99.90;;;;;;5033572;28;20629;-42
2023/08/14 08:38:00;;;;;;;;;;;21.30;99.90;;;;;;5006928;28;19986;-42
2023/08/14 08:40:27;;;;;;;;;;;21.40;99.90;;;;;;5002772;28;19960;-43
2023/08/14 08:42:54;;;;;;;;;;;21.60;99.90;;;;;;5031182;28;19940;-43
2023/08/14 08:45:21;;;;;;;;;;;21.80;99.90;;;;;;5031825;28;20341;-42
2023/08/14 08:47:48;;;;;;;;;;;22.00;99.90;;;;;;5033747;28;19940;-42
2023/08/14 08:50:15;;;;;;;;;;;22.20;99.90;;;;;;5033541;28;20295;-42
2023/08/14 08:52:43;;;;;;;;;;;22.40;99.90;;;;;;5023736;28;19929;-43
2023/08/14 08:55:10;;;;;;;;;;;22.50;99.90;;;;;;5023672;28;19939;-42
2023/08/14 08:57:38;;;;;;;;;;;22.50;99.90;;;;;;5019703;28;19959;-42
2023/08/14 09:00:06;;;;;;;;;;;22.40;99.90;;;;;;5029304;28;19986;-43
2023/08/14 09:02:32;;;;;;;;;;;22.40;99.90;;;;;;5016093;28;20348;-43
2023/08/14 09:05:00;;;;;;;;;;;22.40;99.90;;;;;;5016352;28;19964;-43
2023/08/14 09:07:26;;;;;;;;;;;22.40;99.90;;;;;;5019162;28;19926;-43
2023/08/14 09:09:55;;;;;;;;;;;22.50;99.90;;;;;;5019166;28;19948;-43
2023/08/14 09:12:21;;;;;;;;;;;22.60;99.90;;;;;;5001112;28;20400;-42
2023/08/14 09:15:00;;;;;;;;;;;22.70;99.90;;;;;;5012264;28;19932;-43
2023/08/14 09:17:26;;;;;;;;;;;22.80;99.90;;;;;;5016224;28;19971;-43
2023/08/14 09:19:53;;;;;;;;;;;23.00;99.90;;;;;;5037948;28;19991;-43
2023/08/14 09:22:20;;;;;;;;;;;23.10;99.90;;;;;;5023659;28;19925;-43
2023/08/14 09:24:48;;;;;;;;;;;23.20;99.90;;;;;;5029073;28;20313;-43
2023/08/14 09:27:16;;;;;;;;;;;23.30;99.90;;;;;;4999780;28;19960;-44
2023/08/14 09:29:43;;;;;;;;;;;23.50;99.90;;;;;;5028839;28;20352;-43
2023/08/14 09:32:10;;;;;;;;;;;23.60;99.90;;;;;;5032181;28;19947;-42
2023/08/14 09:34:37;;;;;;;;;;;23.70;99.90;;;;;;5032384;28;20358;-43
2023/08/14 09:37:04;;;;;;;;;;;23.80;99.90;;;;;;5024549;28;19940;-43
2023/08/14 09:39:31;;;;;;;;;;;23.80;99.90;;;;;;5032239;28;19925;-43
2023/08/14 09:41:57;;;;;;;;;;;23.80;99.90;;;;;;5009352;28;19944;-43
2023/08/14 09:44:25;;;;;;;;;;;23.80;99.90;;;;;;5052138;28;19947;-43
2023/08/14 09:46:54;;;;;;;;;;;23.90;99.90;;;;;;5023762;28;20262;-42
2023/08/14 09:49:20;;;;;;;;;;;24.00;99.90;;;;;;5013266;28;20337;-43
2023/08/14 09:51:56;;;;;;;;;;;24.20;99.90;;;;;;5022408;28;19969;-43
2023/08/14 09:54:30;;;;;;;;;;;24.40;99.90;;;;;;5028574;28;19956;-43
2023/08/14 09:56:59;;;;;;;;;;;24.60;99.90;;;;;;5024976;28;19932;-42
2023/08/14 09:59:27;;;;;;;;;;;24.80;99.90;;;;;;5031308;28;19968;-44
2023/08/14 10:01:53;;;;;;;;;;;25.00;99.90;;;;;;5010863;28;19925;-43
2023/08/14 10:04:20;;;;;;;;;;;25.10;99.90;;;;;;5016399;28;19925;-43
2023/08/14 10:06:47;;;;;;;;;;;25.20;99.90;;;;;;5024780;28;19948;-42
2023/08/14 10:09:14;;;;;;;;;;;25.30;99.90;;;;;;5000222;28;19976;-44
2023/08/14 10:11:41;;;;;;;;;;;25.30;99.90;;;;;;5012846;28;19975;-43
2023/08/14 10:14:07;;;;;;;;;;;25.30;99.90;;;;;;5012226;28;19929;-44
2023/08/14 10:16:38;;;;;;;;;;;25.40;99.90;;;;;;5021600;28;19959;-42
2023/08/14 10:19:05;;;;;;;;;;;25.60;99.90;;;;;;5017110;28;20048;-43
2023/08/14 10:21:33;;;;;;;;;;;25.70;99.90;;;;;;5014005;28;20000;-44
2023/08/14 10:24:02;;;;;;;;;;;25.90;99.90;;;;;;5014739;28;20307;-43
2023/08/14 10:26:28;;;;;;;;;;;26.00;99.90;;;;;;5020783;28;20583;-43
2023/08/14 10:28:55;;;;;;;;;;;26.10;99.90;;;;;;5021058;28;20444;-44
2023/08/14 10:31:22;;;;;;;;;;;26.30;99.90;;;;;;5043424;28;19951;-43
2023/08/14 10:33:51;;;;;;;;;;;26.50;99.90;;;;;;5016814;28;20374;-42
2023/08/14 10:36:22;;;;;;;;;;;26.70;99.90;;;;;;5030403;28;19963;-43
2023/08/14 10:38:49;;;;;;;;;;;26.60;98.20;;;;;;5019125;28;19931;-43
2023/08/14 10:41:17;;;;;;;;;;;26.60;99.90;;;;;;5013072;28;19955;-44
2023/08/14 10:43:43;;;;;;;;;;;26.70;99.80;;;;;;5002458;28;19933;-44
2023/08/14 10:46:10;;;;;;;;;;;26.70;97.80;;;;;;5028864;28;20019;-43
2023/08/14 10:48:37;;;;;;;;;;;26.80;99.90;;;;;;4999709;28;19959;-43
2023/08/14 10:51:06;;;;;;;;;;;26.80;98.80;;;;;;5006660;28;20035;-42
2023/08/14 10:53:32;;;;;;;;;;;27.00;99.90;;;;;;5026516;28;20630;-44
2023/08/14 10:55:59;;;;;;;;;;;27.10;98.20;;;;;;5027065;28;19933;-43
2023/08/14 10:58:39;;;;;;;;;;;27.10;99.00;;;;;;5028687;28;20415;-44
2023/08/14 11:01:06;;;;;;;;;;;27.30;99.80;;;;;;5028871;28;20056;-43
2023/08/14 11:03:33;;;;;;;;;;;27.50;97.80;;;;;;5028525;28;19945;-44
2023/08/14 11:06:00;;;;;;;;;;;27.60;98.10;;;;;;5019981;28;19944;-44
2023/08/14 11:08:29;;;;;;;;;;;27.60;95.60;;;;;;4999882;28;19976;-43
2023/08/14 11:10:57;;;;;;;;;;;27.50;97.90;;;;;;4999420;28;19951;-44
2023/08/14 11:13:23;;;;;;;;;;;27.60;98.00;;;;;;5013164;28;20351;-44
2023/08/14 11:15:50;;;;;;;;;;;27.80;96.70;;;;;;5016427;28;19925;-44
2023/08/14 11:18:17;;;;;;;;;;;27.90;98.00;;;;;;4995512;28;19940;-44
2023/08/14 11:20:45;;;;;;;;;;;28.00;95.40;;;;;;5004660;28;19937;-43
2023/08/14 11:23:11;;;;;;;;;;;28.00;93.50;;;;;;5028283;28;19967;-44
2023/08/14 11:25:39;;;;;;;;;;;28.00;94.60;;;;;;5013961;28;19944;-42
2023/08/14 11:28:06;;;;;;;;;;;28.10;93.90;;;;;;5021345;28;19940;-44
2023/08/14 11:30:33;;;;;;;;;;;28.10;95.10;;;;;;5020519;28;20296;-44
2023/08/14 11:33:00;;;;;;;;;;;28.10;93.50;;;;;;5007048;28;19978;-45
2023/08/14 11:35:28;;;;;;;;;;;28.30;94.70;;;;;;5009181;28;21836;-45
2023/08/14 11:37:55;;;;;;;;;;;28.30;93.00;;;;;;5032198;28;19940;-45
2023/08/14 11:40:22;;;;;;;;;;;28.30;93.10;;;;;;5028390;28;19961;-44
2023/08/14 11:42:50;;;;;;;;;;;28.30;93.00;;;;;;4998496;28;19939;-44
2023/08/14 11:45:17;;;;;;;;;;;28.30;95.10;;;;;;5026759;28;19942;-44
2023/08/14 11:47:47;;;;;;;;;;;28.40;95.10;;;;;;5008655;28;19966;-44
2023/08/14 11:50:13;;;;;;;;;;;28.60;94.40;;;;;;5015798;28;19938;-44
2023/08/14 11:52:40;;;;;;;;;;;28.60;92.70;;;;;;5020896;28;19932;-44
2023/08/14 11:55:08;;;;;;;;;;;28.70;95.20;;;;;;5034863;28;20407;-44
2023/08/14 11:57:35;;;;;;;;;;;28.80;95.00;;;;;;5031137;28;19955;-44
2023/08/14 12:00:05;;;;;;;;;;;28.80;91.90;;;;;;5035263;28;19948;-44
2023/08/14 12:02:32;;;;;;;;;;;28.60;91.80;;;;;;5012302;28;19925;-44
2023/08/14 12:05:01;;;;;;;;;;;28.50;93.60;;;;;;5022617;28;19947;-44
2023/08/14 12:07:27;;;;;;;;;;;28.40;91.50;;;;;;5014315;28;19925;-44
2023/08/14 12:09:54;;;;;;;;;;;28.30;90.60;;;;;;5034021;28;19948;-43
2023/08/14 12:12:21;;;;;;;;;;;28.10;93.30;;;;;;5003685;28;19943;-43
2023/08/14 12:14:48;;;;;;;;;;;28.00;94.40;;;;;;5000461;28;19940;-43
2023/08/14 12:17:18;;;;;;;;;;;28.00;92.90;;;;;;5009327;28;20037;-45
2023/08/14 12:19:48;;;;;;;;;;;28.00;93.40;;;;;;4999968;28;19964;-44
2023/08/14 12:22:15;;;;;;;;;;;28.10;93.20;;;;;;5002063;28;20397;-45
2023/08/14 12:24:42;;;;;;;;;;;28.10;93.30;;;;;;5035407;28;19925;-44
2023/08/14 12:27:13;;;;;;;;;;;28.20;93.40;;;;;;5015844;28;19941;-45
2023/08/14 12:29:40;;;;;;;;;;;28.30;92.60;;;;;;5009018;28;20337;-44
2023/08/14 12:32:07;;;;;;;;;;;28.30;91.00;;;;;;5030105;28;19967;-44
2023/08/14 12:34:35;;;;;;;;;;;28.20;91.30;;;;;;5014432;28;19936;-44
2023/08/14 12:37:02;;;;;;;;;;;28.10;92.00;;;;;;5016747;28;19932;-44
2023/08/14 12:39:29;;;;;;;;;;;28.10;92.50;;;;;;5014885;28;19936;-43
2023/08/14 12:41:56;;;;;;;;;;;28.00;92.50;;;;;;5008198;28;19996;-43
2023/08/14 12:44:22;;;;;;;;;;;28.00;94.10;;;;;;5016526;28;19940;-44
2023/08/14 12:46:49;;;;;;;;;;;28.20;92.60;;;;;;5026502;28;19925;-44
2023/08/14 12:49:16;;;;;;;;;;;28.40;92.30;;;;;;5017266;28;19963;-44
2023/08/14 12:51:44;;;;;;;;;;;28.50;93.20;;;;;;5032092;28;20383;-44
2023/08/14 12:54:10;;;;;;;;;;;28.60;92.50;;;;;;5022771;28;19929;-44
2023/08/14 12:56:37;;;;;;;;;;;28.60;91.30;;;;;;4997239;28;19933;-44
2023/08/14 12:59:04;;;;;;;;;;;28.60;89.20;;;;;;5014930;28;19959;-44
2023/08/14 13:01:31;;;;;;;;;;;28.70;89.80;;;;;;5023323;28;20013;-44
2023/08/14 13:03:57;;;;;;;;;;;28.70;88.70;;;;;;5022120;28;19972;-43
2023/08/14 13:06:24;;;;;;;;;;;28.70;91.50;;;;;;5027073;28;20380;-44
2023/08/14 13:08:52;;;;;;;;;;;28.70;91.70;;;;;;5028489;28;19963;-44
2023/08/14 13:11:19;;;;;;;;;;;28.80;90.40;;;;;;5011079;28;19936;-44
2023/08/14 13:13:45;;;;;;;;;;;28.90;85.20;;;;;;5015060;28;20003;-43
2023/08/14 13:16:12;;;;;;;;;;;28.90;90.40;;;;;;5015994;28;20431;-44
2023/08/14 13:18:39;;;;;;;;;;;29.10;87.60;;;;;;4996152;28;19969;-44
2023/08/14 13:21:05;;;;;;;;;;;29.10;86.80;;;;;;4996011;28;19948;-45
2023/08/14 13:23:32;;;;;;;;;;;29.00;85.30;;;;;;5026856;28;19979;-44
2023/08/14 13:26:00;;;;;;;;;;;29.10;89.00;;;;;;5013834;28;20455;-44
2023/08/14 13:28:27;;;;;;;;;;;29.10;85.20;;;;;;5006775;28;20398;-44
2023/08/14 13:30:53;;;;;;;;;;;29.00;87.90;;;;;;5017994;28;19951;-44
2023/08/14 13:33:20;;;;;;;;;;;29.00;87.60;;;;;;5000271;28;19941;-44
2023/08/14 13:35:47;;;;;;;;;;;29.10;90.50;;;;;;5014910;28;19966;-44
2023/08/14 13:38:14;;;;;;;;;;;29.20;86.60;;;;;;5000555;28;19992;-44
2023/08/14 13:40:42;;;;;;;;;;;29.30;87.60;;;;;;5024184;28;20706;-44
2023/08/14 13:43:10;;;;;;;;;;;29.30;82.10;;;;;;5009343;28;19943;-44
2023/08/14 13:45:37;;;;;;;;;;;29.10;84.10;;;;;;5025809;28;19936;-43
2023/08/14 13:48:03;;;;;;;;;;;29.00;87.70;;;;;;5025461;28;19937;-43
2023/08/14 13:50:31;;;;;;;;;;;29.00;85.40;;;;;;5010104;28;19946;-44
2023/08/14 13:52:57;;;;;;;;;;;29.00;84.30;;;;;;5013285;28;19932;-43
2023/08/14 13:55:24;;;;;;;;;;;29.00;83.60;;;;;;4996708;28;20301;-44
2023/08/14 13:57:51;;;;;;;;;;;29.10;83.10;;;;;;5023313;28;19972;-43
2023/08/14 14:00:19;;;;;;;;;;;29.10;81.70;;;;;;5019837;28;20398;-44
2023/08/14 14:02:46;;;;;;;;;;;29.10;86.10;;;;;;5006517;28;20399;-43
2023/08/14 14:05:13;;;;;;;;;;;29.10;81.50;;;;;;5018298;28;19945;-44
2023/08/14 14:07:39;;;;;;;;;;;28.90;84.00;;;;;;5007514;28;19942;-44
2023/08/14 14:10:06;;;;;;;;;;;28.70;81.50;;;;;;5032685;28;19995;-44
2023/08/14 14:12:33;;;;;;;;;;;28.60;84.80;;;;;;5033523;28;19967;-44
2023/08/14 14:15:00;;;;;;;;;;;28.70;87.70;;;;;;5031832;28;19932;-43